Аэропорт: Сыктывкар. Сыктывкар

ICAO: UUYY

METAR:
2019-09-21 16:00:00
UUYY 211600Z 22001MPS 9000 NSC 01/00 Q1002 R18/29//51 NOSIG RMK QFE743/0991
METAR:
2019-09-21 14:00:00
TAF UUYY 211400Z 2115/2215 23003MPS 6000 BKN011 BKN020CB TEMPO 2115/2118 0500 -SHRASN FG FEW005 BKN015CB TEMPO 2118/2203 0500 -SHSN FZFG BKN003 BKN015CB BECMG 2203/2204 18003MPS TEMPO 2203/2215 3100 -SHRASN BKN012CB